Lecueder, Argentina
Current Conditions -  °F | °C
As of 11:00 AM on Saturday 20 Dec 2014 (Local Time) from SAOC Reporting Station
Scattered Clouds Scattered Clouds  
Wind Chill: 70°   Ceiling: Unl
Heat Index: 70°   Visibility: 6mi
Dew Point: 54°   Wind: 20mph
Humidity: 56%   Direction: 180°S
Pressure: 29.68"   Gusts: NA
Location:  34.42°S, 64.86°W
Report Text: SAOC 201400Z 18017KT 9999 FEW020 SCT02521/12 Q1005
Loading
Personal Weather Stations






























Interactive Weather Map New forecast layout! Learn more

10-Day Weather Forecast

Advertisements
Track Severe Weather on mobile